Time;durP1;ratioP1;P1;durP2;ratioP2;P2;SDS_P1;SDS_P2;PMS_P1;PMS_P2;Temp;Humidity;BMP_temperature;BMP_pressure;BME280_temperature;BME280_humidity;BME280_pressure;Samples;Min_cycle;Max_cycle;Signal;HPM_P1;HPM_P2
2022/08/26 00:01:11;;;;;;;1.30;1.20;;;24.30;37.40;;;;;;5080067;28;20914;-70
2022/08/26 00:03:38;;;;;;;1.30;1.10;;;24.30;37.60;;;;;;5077586;28;20629;-70
2022/08/26 00:06:04;;;;;;;1.30;1.20;;;24.30;38.20;;;;;;5071605;28;20439;-70
2022/08/26 00:08:29;;;;;;;1.30;1.20;;;24.10;38.20;;;;;;5080253;28;20831;-70
2022/08/26 00:10:55;;;;;;;1.30;1.20;;;24.20;38.30;;;;;;5078209;28;20428;-70
2022/08/26 00:13:21;;;;;;;1.30;1.30;;;24.40;36.70;;;;;;5084983;28;20260;-70
2022/08/26 00:15:46;;;;;;;1.30;1.30;;;24.30;37.30;;;;;;5080750;28;20181;-70
2022/08/26 00:18:13;;;;;;;1.30;1.10;;;24.20;37.60;;;;;;5073483;28;20177;-70
2022/08/26 00:20:39;;;;;;;1.30;1.13;;;24.10;37.80;;;;;;5082586;28;20526;-70
2022/08/26 00:23:05;;;;;;;1.30;1.20;;;24.10;38.60;;;;;;5080902;28;20420;-70
2022/08/26 00:25:31;;;;;;;1.30;1.20;;;24.10;39.10;;;;;;5084178;28;21007;-70
2022/08/26 00:27:57;;;;;;;1.30;1.10;;;24.00;39.20;;;;;;5078826;28;20414;-70
2022/08/26 00:30:26;;;;;;;1.30;1.20;;;23.90;39.10;;;;;;5084929;28;20506;-70
2022/08/26 00:32:52;;;;;;;1.30;1.20;;;23.80;39.00;;;;;;5077586;28;20224;-70
2022/08/26 00:35:18;;;;;;;1.30;1.30;;;23.80;40.40;;;;;;5071138;28;20432;-70
2022/08/26 00:37:44;;;;;;;1.30;1.13;;;23.70;39.80;;;;;;5078452;28;20435;-70
2022/08/26 00:40:16;;;;;;;1.30;1.30;;;23.90;39.40;;;;;;5078049;28;20918;-70
2022/08/26 00:42:41;;;;;;;1.30;1.30;;;23.80;39.70;;;;;;5078051;28;20429;-70
2022/08/26 00:45:07;;;;;;;1.30;1.20;;;23.70;40.40;;;;;;5079430;28;20815;-70
2022/08/26 00:47:46;;;;;;;1.30;1.10;;;23.70;40.30;;;;;;5068574;28;20214;-70
2022/08/26 00:50:15;;;;;;;1.30;1.10;;;23.80;39.80;;;;;;5085972;28;21042;-70
2022/08/26 00:52:42;;;;;;;1.30;1.07;;;23.80;39.80;;;;;;5080057;28;20435;-70
2022/08/26 00:55:20;;;;;;;1.30;1.20;;;23.80;40.10;;;;;;5077800;28;20429;-70
2022/08/26 00:57:49;;;;;;;1.30;1.27;;;23.90;39.80;;;;;;5081029;28;20425;-70
2022/08/26 01:00:24;;;;;;;1.30;1.10;;;23.80;39.60;;;;;;5084280;28;20432;-70
2022/08/26 01:02:50;;;;;;;1.30;1.20;;;23.80;39.90;;;;;;5085396;28;20495;-70
2022/08/26 01:05:18;;;;;;;1.30;1.30;;;23.80;40.40;;;;;;5077845;28;20439;-70
2022/08/26 01:07:44;;;;;;;1.30;1.20;;;23.70;40.30;;;;;;5076988;28;20807;-70
2022/08/26 01:10:15;;;;;;;1.30;1.10;;;23.70;40.40;;;;;;5072331;28;20501;-70
2022/08/26 01:12:45;;;;;;;1.30;1.10;;;23.60;41.10;;;;;;5081995;28;20425;-70
2022/08/26 01:15:17;;;;;;;1.30;1.20;;;23.50;40.90;;;;;;5084712;28;20788;-70
2022/08/26 01:17:43;;;;;;;1.30;1.10;;;23.50;40.80;;;;;;5084641;28;20437;-70
2022/08/26 01:20:26;;;;;;;1.30;1.00;;;23.50;41.40;;;;;;5081385;28;20433;-70
2022/08/26 01:23:00;;;;;;;1.30;1.20;;;23.60;41.20;;;;;;5082459;28;20601;-70
2022/08/26 01:25:30;;;;;;;1.30;1.10;;;23.50;40.90;;;;;;5078503;28;20427;-70
2022/08/26 01:27:59;;;;;;;1.30;1.20;;;23.50;40.40;;;;;;5082267;28;20435;-70
2022/08/26 01:30:27;;;;;;;1.30;1.17;;;23.20;41.30;;;;;;5078220;28;20447;-70
2022/08/26 01:32:56;;;;;;;1.30;1.20;;;23.10;41.60;;;;;;5078866;28;20516;-70
2022/08/26 01:35:22;;;;;;;1.30;1.10;;;22.80;42.50;;;;;;5084239;28;20592;-70
2022/08/26 01:37:51;;;;;;;1.30;1.10;;;22.70;43.00;;;;;;5085659;28;20511;-70
2022/08/26 01:40:22;;;;;;;1.30;1.10;;;22.90;42.50;;;;;;5082092;28;20441;-70
2022/08/26 01:42:48;;;;;;;1.30;1.10;;;23.00;41.80;;;;;;5075164;28;20455;-70
2022/08/26 01:45:18;;;;;;;1.30;1.20;;;23.20;41.90;;;;;;5068407;28;20437;-70
2022/08/26 01:47:46;;;;;;;1.30;1.10;;;23.10;41.80;;;;;;5062096;28;20512;-70
2022/08/26 01:50:17;;;;;;;1.30;1.10;;;23.10;42.00;;;;;;5070622;28;20459;-70
2022/08/26 01:52:47;;;;;;;1.30;1.10;;;23.10;41.70;;;;;;5082129;28;20794;-70
2022/08/26 01:55:14;;;;;;;1.30;1.20;;;23.00;41.90;;;;;;5078735;28;20420;-70
2022/08/26 01:57:43;;;;;;;1.30;1.20;;;23.00;42.10;;;;;;5065820;28;20420;-70
2022/08/26 02:00:12;;;;;;;1.30;1.10;;;23.00;42.50;;;;;;5071860;28;20419;-70
2022/08/26 02:02:42;;;;;;;1.30;1.20;;;23.00;41.80;;;;;;5072968;28;20452;-70
2022/08/26 02:05:10;;;;;;;1.30;1.20;;;23.10;41.90;;;;;;5073146;28;20402;-70
2022/08/26 02:07:39;;;;;;;1.30;1.10;;;23.20;41.20;;;;;;5072935;28;20432;-70
2022/08/26 02:10:05;;;;;;;1.30;1.10;;;23.00;42.00;;;;;;5063579;28;20472;-70
2022/08/26 02:12:32;;;;;;;1.30;1.10;;;23.00;41.70;;;;;;5068420;28;20423;-70
2022/08/26 02:15:00;;;;;;;1.30;1.20;;;22.80;42.70;;;;;;5073274;28;20783;-70
2022/08/26 02:17:36;;;;;;;1.30;1.20;;;22.60;43.90;;;;;;5073344;28;20404;-70
2022/08/26 02:20:03;;;;;;;1.30;1.20;;;22.80;42.80;;;;;;5073605;28;20943;-70
2022/08/26 02:22:30;;;;;;;1.30;1.20;;;22.80;42.30;;;;;;5070735;28;20430;-71
2022/08/26 02:24:59;;;;;;;1.30;1.13;;;22.80;42.40;;;;;;5083370;28;20478;-70
2022/08/26 02:27:29;;;;;;;1.30;1.20;;;22.70;44.10;;;;;;5084915;28;20474;-70
2022/08/26 02:30:00;;;;;;;1.30;1.10;;;22.70;43.50;;;;;;5085529;28;20484;-70
2022/08/26 02:32:25;;;;;;;1.30;1.20;;;22.80;43.30;;;;;;5072130;28;20405;-70
2022/08/26 02:34:51;;;;;;;1.30;1.10;;;22.60;43.20;;;;;;5079894;28;20456;-70
2022/08/26 02:37:17;;;;;;;1.30;1.20;;;22.50;43.00;;;;;;5082934;28;20186;-70
2022/08/26 02:39:42;;;;;;;1.30;1.10;;;22.50;44.50;;;;;;5079966;28;20180;-70
2022/08/26 02:42:08;;;;;;;1.30;1.20;;;22.50;43.20;;;;;;5078576;28;20188;-70
2022/08/26 02:44:34;;;;;;;1.30;1.20;;;22.60;42.80;;;;;;5083749;28;20291;-70
2022/08/26 02:47:00;;;;;;;1.30;1.10;;;22.60;44.10;;;;;;5084740;28;20808;-69
2022/08/26 02:49:27;;;;;;;1.30;1.20;;;22.50;44.00;;;;;;5078157;28;20492;-69
2022/08/26 02:51:53;;;;;;;1.30;1.20;;;22.50;44.30;;;;;;5073262;28;20431;-69
2022/08/26 02:54:20;;;;;;;1.30;1.20;;;22.50;44.00;;;;;;5071826;28;20488;-69
2022/08/26 02:56:46;;;;;;;1.30;1.20;;;22.70;43.20;;;;;;5067935;28;20430;-70
2022/08/26 02:59:12;;;;;;;1.30;1.20;;;22.90;41.40;;;;;;5081038;28;20952;-69
2022/08/26 03:01:39;;;;;;;1.30;1.20;;;23.00;41.90;;;;;;5071615;28;20438;-69
2022/08/26 03:04:08;;;;;;;1.30;1.20;;;22.80;42.50;;;;;;5072550;28;20425;-69
2022/08/26 03:06:34;;;;;;;1.30;1.20;;;22.80;42.20;;;;;;5079439;28;20977;-70
2022/08/26 03:09:00;;;;;;;1.30;1.10;;;22.70;42.40;;;;;;5080554;28;20463;-69
2022/08/26 03:11:26;;;;;;;1.30;1.13;;;22.60;42.80;;;;;;5070956;28;20452;-69
2022/08/26 03:13:52;;;;;;;1.30;1.10;;;22.50;44.00;;;;;;5071767;28;20199;-69
2022/08/26 03:16:19;;;;;;;1.30;1.10;;;22.20;43.70;;;;;;5069162;28;20181;-69
2022/08/26 03:18:45;;;;;;;1.30;1.13;;;21.80;45.40;;;;;;5078377;28;20417;-69
2022/08/26 03:21:13;;;;;;;1.30;1.20;;;21.70;46.50;;;;;;5074311;28;20434;-70
2022/08/26 03:23:41;;;;;;;1.30;1.20;;;22.00;46.10;;;;;;5090348;28;20587;-68
2022/08/26 03:26:07;;;;;;;1.30;1.20;;;22.20;44.60;;;;;;5079809;28;20520;-71
2022/08/26 03:28:33;;;;;;;1.30;1.10;;;22.30;44.50;;;;;;5087467;28;20460;-68
2022/08/26 03:30:59;;;;;;;1.30;1.10;;;22.30;43.80;;;;;;5071137;28;20437;-69
2022/08/26 03:33:25;;;;;;;1.30;1.30;;;22.20;43.70;;;;;;5082599;28;20220;-70
2022/08/26 03:35:52;;;;;;;1.30;1.20;;;22.30;44.40;;;;;;5076308;28;20186;-69
2022/08/26 03:38:20;;;;;;;1.30;1.20;;;22.30;43.80;;;;;;5079248;28;20426;-69
2022/08/26 03:40:46;;;;;;;1.30;1.13;;;22.30;43.80;;;;;;5078765;28;20425;-69
2022/08/26 03:43:13;;;;;;;1.30;1.20;;;22.10;44.80;;;;;;5083428;28;20529;-69
2022/08/26 03:45:39;;;;;;;1.30;1.10;;;22.10;45.70;;;;;;5079303;28;20461;-69
2022/08/26 03:48:05;;;;;;;1.30;1.10;;;22.10;44.80;;;;;;5074842;28;20477;-69
2022/08/26 03:50:32;;;;;;;1.30;1.10;;;22.00;45.20;;;;;;5068675;28;20861;-70
2022/08/26 03:52:58;;;;;;;1.30;1.10;;;22.10;44.90;;;;;;5073753;28;20442;-69
2022/08/26 03:55:26;;;;;;;1.30;1.30;;;22.30;43.80;;;;;;5071163;28;20523;-69
2022/08/26 03:57:52;;;;;;;1.30;1.13;;;22.10;44.80;;;;;;5075612;28;20397;-69
2022/08/26 04:00:18;;;;;;;1.30;1.20;;;22.30;44.10;;;;;;5077794;28;20940;-69
2022/08/26 04:02:47;;;;;;;1.30;1.10;;;22.40;43.90;;;;;;5075829;28;20183;-69
2022/08/26 04:05:16;;;;;;;1.30;1.10;;;22.10;44.60;;;;;;5072271;28;20435;-69
2022/08/26 04:07:42;;;;;;;1.30;1.10;;;22.10;45.20;;;;;;5087441;28;20432;-69
2022/08/26 04:10:12;;;;;;;1.30;1.13;;;22.00;45.00;;;;;;5072939;28;20800;-69
2022/08/26 04:12:39;;;;;;;1.30;1.10;;;21.90;45.60;;;;;;5070162;28;20185;-69
2022/08/26 04:15:08;;;;;;;1.30;1.13;;;22.00;45.50;;;;;;5070911;28;20457;-69
2022/08/26 04:17:33;;;;;;;1.30;1.13;;;22.00;44.90;;;;;;5064439;28;20488;-70
2022/08/26 04:19:59;;;;;;;1.30;1.10;;;21.90;45.20;;;;;;5069754;28;20445;-69
2022/08/26 04:22:25;;;;;;;1.30;1.20;;;21.90;44.80;;;;;;5070029;28;20189;-69
2022/08/26 04:24:51;;;;;;;1.30;1.10;;;22.10;44.50;;;;;;5063846;28;20213;-69
2022/08/26 04:27:17;;;;;;;1.30;1.20;;;22.10;43.60;;;;;;5079764;28;20175;-69
2022/08/26 04:29:42;;;;;;;1.30;1.10;;;22.00;43.60;;;;;;5070761;28;20954;-69
2022/08/26 04:32:08;;;;;;;1.30;1.20;;;22.00;44.80;;;;;;5083886;28;20187;-70
2022/08/26 04:34:34;;;;;;;1.30;1.20;;;21.90;45.20;;;;;;5072002;28;20226;-69
2022/08/26 04:37:00;;;;;;;1.30;1.20;;;21.80;45.00;;;;;;5082949;28;20523;-68
2022/08/26 04:39:26;;;;;;;1.30;1.10;;;21.80;45.60;;;;;;5060089;28;21134;-69
2022/08/26 04:41:55;;;;;;;1.30;1.10;;;21.80;46.10;;;;;;5077060;28;20188;-68
2022/08/26 04:44:23;;;;;;;1.30;1.10;;;21.70;46.00;;;;;;5077454;28;20499;-69
2022/08/26 04:46:49;;;;;;;1.30;1.10;;;21.80;46.80;;;;;;5072402;28;20430;-69
2022/08/26 04:49:14;;;;;;;1.30;1.07;;;22.10;44.20;;;;;;5069498;28;21018;-70
2022/08/26 04:51:40;;;;;;;1.30;1.20;;;22.10;44.00;;;;;;5074733;28;20184;-69
2022/08/26 04:54:06;;;;;;;1.30;1.10;;;21.90;45.20;;;;;;5071855;28;20198;-69
2022/08/26 04:56:35;;;;;;;1.30;1.10;;;21.90;45.80;;;;;;5071238;28;20253;-68
2022/08/26 04:59:02;;;;;;;1.30;1.20;;;22.10;43.60;;;;;;5071080;28;20436;-69
2022/08/26 05:01:30;;;;;;;1.30;1.10;;;21.90;45.00;;;;;;5070497;28;20874;-69
2022/08/26 05:03:56;;;;;;;1.30;1.10;;;21.90;44.80;;;;;;5074100;28;20831;-69
2022/08/26 05:06:21;;;;;;;1.30;1.20;;;21.80;45.20;;;;;;5077349;28;20442;-70
2022/08/26 05:08:47;;;;;;;1.30;1.10;;;21.80;45.70;;;;;;5070984;28;20968;-70
2022/08/26 05:11:12;;;;;;;1.30;1.10;;;21.80;45.10;;;;;;5080822;28;20179;-68
2022/08/26 05:13:39;;;;;;;1.30;1.10;;;21.80;45.70;;;;;;5071529;28;20203;-69
2022/08/26 05:16:07;;;;;;;1.30;1.20;;;21.90;45.80;;;;;;5070200;28;20522;-68
2022/08/26 05:18:33;;;;;;;1.30;1.10;;;21.90;45.60;;;;;;5063947;22;20477;-75
2022/08/26 05:21:01;;;;;;;1.30;1.10;;;21.80;45.90;;;;;;5045514;28;20846;-79
2022/08/26 05:23:27;;;;;;;1.30;1.10;;;21.80;46.40;;;;;;5036782;28;20417;-79
2022/08/26 05:25:54;;;;;;;1.30;1.10;;;22.00;45.60;;;;;;5030326;28;20511;-79
2022/08/26 05:28:23;;;;;;;1.30;1.10;;;22.20;45.20;;;;;;5032102;28;20424;-79
2022/08/26 05:30:49;;;;;;;1.30;1.20;;;22.00;46.20;;;;;;5035815;28;20540;-78
2022/08/26 05:33:15;;;;;;;1.30;1.10;;;22.10;44.10;;;;;;5031545;28;20794;-78
2022/08/26 05:35:43;;;;;;;1.30;1.00;;;21.90;45.20;;;;;;5033129;28;20478;-79
2022/08/26 05:38:12;;;;;;;1.30;1.17;;;21.60;45.70;;;;;;5028679;28;20448;-78
2022/08/26 05:40:45;;;;;;;1.30;1.10;;;21.50;46.30;;;;;;5034071;28;20947;-78
2022/08/26 05:43:12;;;;;;;1.30;1.10;;;21.30;47.00;;;;;;5033462;28;20435;-78
2022/08/26 05:45:43;;;;;;;1.30;1.10;;;21.50;47.80;;;;;;5033508;28;20430;-78
2022/08/26 05:48:08;;;;;;;1.30;1.10;;;21.80;45.80;;;;;;5033207;28;20454;-78
2022/08/26 05:50:46;;;;;;;1.30;1.20;;;21.80;45.70;;;;;;5026315;28;20527;-78
2022/08/26 05:53:15;;;;;;;1.30;1.20;;;21.60;45.60;;;;;;5021859;28;20256;-80
2022/08/26 05:55:50;;;;;;;1.30;1.20;;;21.70;45.80;;;;;;5027621;28;20434;-74
2022/08/26 05:58:19;;;;;;;1.30;1.17;;;21.80;44.90;;;;;;5031213;28;20819;-74
2022/08/26 06:00:45;;;;;;;1.30;1.10;;;21.90;45.30;;;;;;5024625;28;20523;-74
2022/08/26 06:03:11;;;;;;;1.30;1.10;;;22.10;43.40;;;;;;5032338;28;20431;-73
2022/08/26 06:05:38;;;;;;;1.30;1.10;;;22.00;43.50;;;;;;5029851;28;20427;-73
2022/08/26 06:08:10;;;;;;;1.30;1.20;;;21.80;43.30;;;;;;5020456;28;20292;-73
2022/08/26 06:10:44;;;;;;;1.30;1.20;;;21.00;48.00;;;;;;5031893;28;21049;-73
2022/08/26 06:13:10;;;;;;;1.30;1.10;;;21.20;48.30;;;;;;5022681;28;20410;-73
2022/08/26 06:15:44;;;;;;;1.30;1.10;;;21.50;46.20;;;;;;5032880;28;20965;-73
2022/08/26 06:18:11;;;;;;;1.30;1.20;;;21.40;46.80;;;;;;5031967;28;20492;-73
2022/08/26 06:20:42;;;;;;;1.30;1.20;;;21.60;45.90;;;;;;5029442;28;20437;-73
2022/08/26 06:25:52;;;;;;;1.30;1.10;;;21.20;47.50;;;;;;5028144;28;20477;-73
2022/08/26 06:28:18;;;;;;;1.30;1.20;;;21.60;46.80;;;;;;5032084;28;20488;-73
2022/08/26 06:30:43;;;;;;;1.30;1.10;;;22.00;45.60;;;;;;5027572;28;20209;-73
2022/08/26 06:33:09;;;;;;;1.30;1.30;;;22.30;45.90;;;;;;5032474;28;20180;-73
2022/08/26 06:35:40;;;;;;;1.30;1.13;;;22.50;45.80;;;;;;5031232;28;20169;-73
2022/08/26 06:38:06;;;;;;;1.30;1.20;;;22.70;45.00;;;;;;5029750;28;20223;-73
2022/08/26 06:40:39;;;;;;;1.30;1.17;;;22.70;44.20;;;;;;5032961;28;20448;-73
2022/08/26 06:43:04;;;;;;;1.27;1.20;;;22.60;43.60;;;;;;5032240;28;20410;-73
2022/08/26 06:45:30;;;;;;;1.30;1.10;;;22.70;43.70;;;;;;5032742;28;20413;-73
2022/08/26 06:47:56;;;;;;;1.30;1.20;;;22.80;43.70;;;;;;5017299;28;20227;-73
2022/08/26 06:50:21;;;;;;;1.30;1.20;;;22.50;43.00;;;;;;5029212;28;20210;-73
2022/08/26 06:52:47;;;;;;;1.30;1.10;;;22.60;42.60;;;;;;5026602;28;20217;-73
2022/08/26 06:55:13;;;;;;;1.30;1.10;;;22.20;43.70;;;;;;5031476;28;20289;-75
2022/08/26 06:57:39;;;;;;;1.30;1.10;;;22.20;44.50;;;;;;5032165;28;20201;-73
2022/08/26 07:00:09;;;;;;;1.30;1.20;;;22.50;44.00;;;;;;5032472;28;20186;-72
2022/08/26 07:02:35;;;;;;;1.30;1.30;;;22.90;42.90;;;;;;5027477;28;20285;-72
2022/08/26 07:05:01;;;;;;;1.30;1.20;;;23.00;41.30;;;;;;5022301;28;20523;-72
2022/08/26 07:07:26;;;;;;;1.30;1.13;;;22.90;42.00;;;;;;5025140;28;20681;-72
2022/08/26 07:09:53;;;;;;;1.30;1.20;;;22.70;42.60;;;;;;5032536;28;20202;-71
2022/08/26 07:12:19;;;;;;;1.30;1.20;;;22.80;42.60;;;;;;5027832;28;20178;-72
2022/08/26 07:14:44;;;;;;;1.30;1.20;;;23.00;42.60;;;;;;5023508;28;20438;-70
2022/08/26 07:17:10;;;;;;;1.30;1.20;;;23.50;42.30;;;;;;5025925;28;20815;-71
2022/08/26 07:19:36;;;;;;;1.30;1.20;;;23.90;42.10;;;;;;5020654;28;20189;-71
2022/08/26 07:22:04;;;;;;;1.30;1.20;;;24.00;39.30;;;;;;5031428;28;20183;-71
2022/08/26 07:24:35;;;;;;;1.30;1.20;;;24.00;39.50;;;;;;5024787;28;20195;-71
2022/08/26 07:27:02;;;;;;;1.20;1.00;;;24.00;39.30;;;;;;5027138;28;20769;-71
2022/08/26 07:29:29;;;;;;;1.27;1.20;;;23.90;39.30;;;;;;5031185;28;21006;-71
2022/08/26 07:31:55;;;;;;;1.23;1.20;;;24.00;39.60;;;;;;5031175;28;20452;-70
2022/08/26 07:34:21;;;;;;;1.27;1.20;;;23.80;39.00;;;;;;5030984;28;20471;-71
2022/08/26 07:36:47;;;;;;;1.30;1.10;;;24.00;39.30;;;;;;5030971;28;20510;-71
2022/08/26 07:39:13;;;;;;;1.23;1.10;;;23.80;39.00;;;;;;5032034;28;20516;-71
2022/08/26 07:41:38;;;;;;;1.20;1.13;;;23.70;40.00;;;;;;5031579;28;20746;-71
2022/08/26 07:44:04;;;;;;;1.30;1.20;;;24.00;38.80;;;;;;5030692;28;20255;-70
2022/08/26 07:46:30;;;;;;;1.30;1.17;;;24.00;38.70;;;;;;5030752;28;20186;-70
2022/08/26 07:48:56;;;;;;;1.30;1.10;;;24.10;38.20;;;;;;5030859;28;20218;-71
2022/08/26 07:51:22;;;;;;;1.30;1.20;;;24.30;37.30;;;;;;5031003;28;20607;-71
2022/08/26 07:53:48;;;;;;;1.30;1.20;;;24.50;37.50;;;;;;5030620;28;20449;-70
2022/08/26 07:56:14;;;;;;;1.30;1.20;;;24.20;37.20;;;;;;5029539;28;20655;-71
2022/08/26 07:58:40;;;;;;;1.30;1.13;;;24.60;37.90;;;;;;5028842;28;20476;-70
2022/08/26 08:01:06;;;;;;;1.30;1.20;;;24.90;35.50;;;;;;5031302;28;20785;-70
2022/08/26 08:03:31;;;;;;;1.30;1.20;;;25.10;35.60;;;;;;5029029;28;20181;-71
2022/08/26 08:05:57;;;;;;;1.30;1.20;;;25.50;33.90;;;;;;5025363;28;20803;-71
2022/08/26 08:08:23;;;;;;;1.30;1.20;;;25.90;32.60;;;;;;5030748;28;20230;-71
2022/08/26 08:10:49;;;;;;;1.30;1.20;;;26.00;32.60;;;;;;5026086;28;20202;-71
2022/08/26 08:13:14;;;;;;;1.30;1.20;;;25.90;32.80;;;;;;5031272;28;20585;-71
2022/08/26 08:15:40;;;;;;;1.30;1.20;;;25.70;33.40;;;;;;5030487;28;20641;-71
2022/08/26 08:18:06;;;;;;;1.30;1.20;;;25.10;35.30;;;;;;5028864;28;20211;-71
2022/08/26 08:20:33;;;;;;;1.30;1.20;;;24.80;35.70;;;;;;5029309;28;20458;-71
2022/08/26 08:23:03;;;;;;;1.23;1.20;;;25.20;35.20;;;;;;5029574;28;20203;-71
2022/08/26 08:25:30;;;;;;;1.30;1.20;;;25.00;34.00;;;;;;5011323;28;20957;-71
2022/08/26 08:27:55;;;;;;;1.23;1.17;;;25.50;33.30;;;;;;5027871;28;20516;-71
2022/08/26 08:30:21;;;;;;;1.30;1.10;;;25.40;34.00;;;;;;5029678;28;20462;-71
2022/08/26 08:32:47;;;;;;;1.20;1.10;;;25.90;33.00;;;;;;5030518;28;20598;-71
2022/08/26 08:35:16;;;;;;;1.20;1.10;;;25.90;33.00;;;;;;5018064;28;20427;-71
2022/08/26 08:37:42;;;;;;;1.30;1.20;;;26.30;32.40;;;;;;5031285;28;20204;-71
2022/08/26 08:40:10;;;;;;;1.20;1.10;;;26.10;32.10;;;;;;5022473;28;20800;-71
2022/08/26 08:42:51;;;;;;;1.20;1.10;;;26.20;33.20;;;;;;5028785;28;20774;-72
2022/08/26 08:45:33;;;;;;;1.30;1.30;;;26.40;32.00;;;;;;5025532;28;20437;-71
2022/08/26 08:48:03;;;;;;;1.23;1.17;;;26.70;32.10;;;;;;5022019;28;20438;-71
2022/08/26 08:50:46;;;;;;;1.30;1.17;;;26.90;31.20;;;;;;5025429;28;20463;-71
2022/08/26 08:53:34;;;;;;;1.20;1.10;;;26.70;31.20;;;;;;5009401;28;20440;-71
2022/08/26 08:56:22;;;;;;;1.30;1.20;;;26.50;32.10;;;;;;5026216;28;20928;-71
2022/08/26 08:59:02;;;;;;;1.20;1.20;;;26.80;32.60;;;;;;5017674;28;20438;-71
2022/08/26 09:01:49;;;;;;;1.20;1.10;;;27.00;32.10;;;;;;5021740;28;20463;-71
2022/08/26 09:04:39;;;;;;;1.20;1.10;;;27.10;30.10;;;;;;5026585;28;20406;-71
2022/08/26 09:07:14;;;;;;;1.20;1.10;;;27.10;30.20;;;;;;5027117;28;20434;-71
2022/08/26 09:09:45;;;;;;;1.30;1.10;;;27.20;31.20;;;;;;5027113;28;20497;-71
2022/08/26 09:12:19;;;;;;;1.27;1.20;;;27.20;30.10;;;;;;5034152;28;20813;-71
2022/08/26 09:14:46;;;;;;;1.20;1.20;;;27.30;30.90;;;;;;5034702;28;20431;-71
2022/08/26 09:17:31;;;;;;;1.30;1.20;;;27.40;29.50;;;;;;5032574;28;20438;-71
2022/08/26 09:20:19;;;;;;;1.20;1.20;;;27.60;28.70;;;;;;5034612;28;20437;-71
2022/08/26 09:22:45;;;;;;;1.30;1.13;;;27.70;28.90;;;;;;5023232;28;20434;-71
2022/08/26 09:25:13;;;;;;;1.20;1.17;;;27.80;28.80;;;;;;5024145;28;20426;-71
2022/08/26 09:27:42;;;;;;;1.20;1.20;;;27.90;27.80;;;;;;5047163;28;20258;-73
2022/08/26 09:30:11;;;;;;;1.20;1.10;;;28.00;28.00;;;;;;5032196;28;20512;-72
2022/08/26 09:32:37;;;;;;;1.20;1.20;;;28.10;29.10;;;;;;5032752;28;20446;-72
2022/08/26 09:35:09;;;;;;;1.20;1.10;;;28.10;29.10;;;;;;5034117;28;20442;-71
2022/08/26 09:37:41;;;;;;;1.23;1.20;;;28.20;29.10;;;;;;5030717;28;20196;-71
2022/08/26 09:40:28;;;;;;;1.23;1.20;;;28.10;28.80;;;;;;5033307;28;20435;-71
2022/08/26 09:43:18;;;;;;;1.30;1.20;;;28.60;28.90;;;;;;5029752;28;20505;-72
2022/08/26 09:45:48;;;;;;;1.23;1.17;;;28.80;27.00;;;;;;5029178;28;20435;-72
2022/08/26 09:48:25;;;;;;;1.20;1.10;;;29.20;26.00;;;;;;5023868;28;20933;-71
2022/08/26 09:50:55;;;;;;;1.20;1.20;;;29.30;27.30;;;;;;5031951;28;20453;-71
2022/08/26 09:53:49;;;;;;;1.30;1.10;;;29.30;26.30;;;;;;5024041;28;20948;-71
2022/08/26 09:56:31;;;;;;;1.20;1.10;;;29.20;25.70;;;;;;5031348;28;20614;-71
2022/08/26 09:58:58;;;;;;;1.30;1.17;;;29.40;26.00;;;;;;5028711;28;20457;-71
2022/08/26 10:01:30;;;;;;;1.20;1.00;;;29.60;25.40;;;;;;5030442;28;20485;-71
2022/08/26 10:04:24;;;;;;;1.20;1.10;;;29.50;25.20;;;;;;5027802;28;20465;-71
2022/08/26 10:06:56;;;;;;;1.20;1.13;;;29.70;24.70;;;;;;5027505;28;20549;-71
2022/08/26 10:09:23;;;;;;;1.20;1.10;;;29.90;25.00;;;;;;5033551;28;20461;-71
2022/08/26 10:11:57;;;;;;;1.30;1.20;;;30.00;25.50;;;;;;5032587;28;20469;-71
2022/08/26 10:14:55;;;;;;;1.20;1.10;;;30.30;25.70;;;;;;5033380;28;20422;-71
2022/08/26 10:17:47;;;;;;;1.30;1.10;;;30.50;25.80;;;;;;5030886;28;20486;-71
2022/08/26 10:20:43;;;;;;;1.30;1.20;;;30.80;24.50;;;;;;5033434;28;20449;-71
2022/08/26 10:23:23;;;;;;;1.23;1.13;;;31.20;24.90;;;;;;5031399;28;20556;-71
2022/08/26 10:25:53;;;;;;;1.20;1.10;;;31.10;23.10;;;;;;5033413;28;20410;-71
2022/08/26 10:28:31;;;;;;;1.20;1.10;;;31.10;24.20;;;;;;5033216;28;20953;-71
2022/08/26 10:31:07;;;;;;;1.30;1.10;;;30.90;22.70;;;;;;5032739;28;20510;-72
2022/08/26 10:33:32;;;;;;;1.30;1.20;;;30.40;23.30;;;;;;5032721;28;20414;-71
2022/08/26 10:36:47;;;;;;;1.23;1.13;;;30.60;24.20;;;;;;5033091;28;20422;-71
2022/08/26 10:38:56;;;;;;;1.20;1.00;;;30.30;23.10;;;;;;5032956;28;20569;-71
2022/08/26 10:41:25;;;;;;;1.20;1.10;;;30.40;24.80;;;;;;5032250;28;20411;-71
2022/08/26 10:43:56;;;;;;;1.20;1.10;;;30.10;24.80;;;;;;5032438;28;20419;-71
2022/08/26 10:46:27;;;;;;;1.20;1.10;;;30.40;24.40;;;;;;5033289;28;20387;-72
2022/08/26 10:49:08;;;;;;;1.20;1.10;;;30.10;24.20;;;;;;5032617;28;20454;-71
2022/08/26 10:51:41;;;;;;;1.20;1.10;;;30.80;23.10;;;;;;5032544;28;20407;-71
2022/08/26 10:54:41;;;;;;;1.30;1.17;;;31.10;22.60;;;;;;5031950;28;20418;-72
2022/08/26 10:57:16;;;;;;;1.20;1.03;;;31.40;24.00;;;;;;5033009;28;20805;-71
2022/08/26 11:00:00;;;;;;;1.20;1.00;;;31.70;22.70;;;;;;5032729;28;20384;-72
2022/08/26 11:02:47;;;;;;;1.23;1.10;;;32.00;23.40;;;;;;5032233;28;20697;-71
2022/08/26 11:05:21;;;;;;;1.20;1.10;;;32.80;21.90;;;;;;5031777;28;20767;-71
2022/08/26 11:07:51;;;;;;;1.23;1.10;;;32.40;20.20;;;;;;5031887;28;20457;-71
2022/08/26 11:10:19;;;;;;;1.20;1.10;;;31.40;22.10;;;;;;5032409;28;20485;-71
2022/08/26 11:12:59;;;;;;;1.20;1.00;;;31.30;21.50;;;;;;5032027;28;20430;-71
2022/08/26 11:15:25;;;;;;;1.20;1.00;;;30.70;22.90;;;;;;5031839;28;20419;-71
2022/08/26 11:17:51;;;;;;;1.20;1.10;;;31.10;22.10;;;;;;5031704;28;20977;-71
2022/08/26 11:20:22;;;;;;;1.20;1.00;;;32.20;22.30;;;;;;5062545;22;20231;-70
2022/08/26 11:22:53;;;;;;;1.20;1.00;;;33.60;19.50;;;;;;5050844;28;20168;-70
2022/08/26 11:25:23;;;;;;;1.20;1.00;;;35.00;17.40;;;;;;5043009;28;20429;-69
2022/08/26 11:27:49;;;;;;;1.20;0.90;;;36.00;14.50;;;;;;5052214;28;21203;-71
2022/08/26 11:30:15;;;;;;;1.20;0.90;;;36.70;14.20;;;;;;5051167;28;20903;-71
2022/08/26 11:32:40;;;;;;;1.20;0.90;;;37.20;14.60;;;;;;5051710;28;20414;-71
2022/08/26 11:35:18;;;;;;;1.20;0.90;;;37.60;12.40;;;;;;5052159;28;20657;-71
2022/08/26 11:37:49;;;;;;;1.20;0.90;;;38.00;12.70;;;;;;5051642;28;20175;-71
2022/08/26 11:40:23;;;;;;;1.20;0.80;;;38.10;13.50;;;;;;5051863;28;20434;-71
2022/08/26 11:42:54;;;;;;;1.20;0.90;;;38.20;12.90;;;;;;5051640;28;20409;-71
2022/08/26 11:45:37;;;;;;;1.20;0.90;;;38.80;12.50;;;;;;5051694;28;20893;-71
2022/08/26 11:48:29;;;;;;;1.20;0.90;;;37.30;13.30;;;;;;5051688;28;20437;-70
2022/08/26 11:51:05;;;;;;;1.20;0.90;;;36.20;13.60;;;;;;5049224;28;20477;-70
2022/08/26 11:53:33;;;;;;;1.20;0.90;;;35.80;13.90;;;;;;5045611;28;20528;-70
2022/08/26 11:56:04;;;;;;;1.20;0.90;;;35.50;14.50;;;;;;5048045;28;20430;-70
2022/08/26 11:58:30;;;;;;;1.20;0.87;;;37.30;12.30;;;;;;5044350;28;20423;-73
2022/08/26 12:01:05;;;;;;;1.20;0.90;;;37.80;12.30;;;;;;5042209;28;20458;-71
2022/08/26 12:03:34;;;;;;;1.20;0.90;;;39.20;11.70;;;;;;5038257;28;20433;-71
2022/08/26 12:06:01;;;;;;;1.20;0.90;;;39.40;9.50;;;;;;5049665;28;20524;-69
2022/08/26 12:08:30;;;;;;;1.20;0.90;;;37.40;10.60;;;;;;5045017;28;20435;-70
2022/08/26 12:11:08;;;;;;;1.20;0.90;;;35.80;12.10;;;;;;5038475;28;20470;-70
2022/08/26 12:13:37;;;;;;;1.20;0.90;;;36.10;12.30;;;;;;5050880;28;21120;-71
2022/08/26 12:16:04;;;;;;;1.20;0.83;;;37.20;13.20;;;;;;5050769;28;20868;-71
2022/08/26 12:18:36;;;;;;;1.20;0.90;;;38.60;10.30;;;;;;5049257;28;20524;-71
2022/08/26 12:21:28;;;;;;;1.20;0.90;;;40.20;8.30;;;;;;5046180;28;20465;-71
2022/08/26 12:23:56;;;;;;;1.20;0.87;;;41.70;7.20;;;;;;5039957;28;20431;-71
2022/08/26 12:26:34;;;;;;;1.20;0.83;;;40.70;6.50;;;;;;5031731;28;20968;-71
2022/08/26 12:29:05;;;;;;;1.20;0.90;;;40.40;8.20;;;;;;5049163;28;20454;-71
2022/08/26 12:31:38;;;;;;;1.20;0.80;;;40.60;5.30;;;;;;5050904;28;20413;-71
2022/08/26 12:34:15;;;;;;;1.20;0.90;;;40.20;6.90;;;;;;5049856;28;20410;-71
2022/08/26 12:36:53;;;;;;;1.20;0.80;;;41.00;6.10;;;;;;5050820;28;20418;-71
2022/08/26 12:39:35;;;;;;;1.20;0.87;;;41.10;7.20;;;;;;5055987;28;20461;-70
2022/08/26 12:42:19;;;;;;;1.20;0.90;;;41.40;7.70;;;;;;5049075;28;20418;-70
2022/08/26 12:44:58;;;;;;;1.20;0.80;;;41.20;6.40;;;;;;5044750;28;20439;-70
2022/08/26 12:47:40;;;;;;;1.20;0.90;;;40.20;6.90;;;;;;5054787;28;20461;-70
2022/08/26 12:50:17;;;;;;;1.20;0.90;;;39.20;8.50;;;;;;5052328;28;20465;-70
2022/08/26 12:53:00;;;;;;;1.20;0.83;;;38.40;9.20;;;;;;5049438;28;20430;-72
2022/08/26 12:55:31;;;;;;;1.20;0.90;;;37.50;10.00;;;;;;5042944;28;20422;-70
2022/08/26 12:58:31;;;;;;;1.20;0.90;;;37.30;10.10;;;;;;5051541;28;20429;-70
2022/08/26 13:01:03;;;;;;;1.20;0.90;;;36.90;10.70;;;;;;5047954;28;20453;-70
2022/08/26 13:03:37;;;;;;;1.20;0.93;;;35.50;12.10;;;;;;5044173;28;20445;-70
2022/08/26 13:06:28;;;;;;;1.20;0.90;;;35.00;11.80;;;;;;5048492;28;20439;-69